Time;durP1;ratioP1;P1;durP2;ratioP2;P2;SDS_P1;SDS_P2;PMS_P1;PMS_P2;Temp;Humidity;BMP_temperature;BMP_pressure;BME280_temperature;BME280_humidity;BME280_pressure;Samples;Min_cycle;Max_cycle;Signal;HPM_P1;HPM_P2
2022/01/03 00:01:46;;;;;;;0.00;0.00;;;13.50;99.90;;;;;;5031945;28;20044;-73
2022/01/03 00:04:14;;;;;;;0.20;0.17;;;13.50;99.90;;;;;;5032217;28;20389;-73
2022/01/03 00:06:40;;;;;;;0.82;0.75;;;13.60;99.90;;;;;;5031921;28;20034;-72
2022/01/03 00:09:08;;;;;;;0.00;0.00;;;13.60;99.90;;;;;;5032112;28;20037;-74
2022/01/03 00:11:35;;;;;;;0.00;0.00;;;13.60;99.90;;;;;;5031629;28;20049;-72
2022/01/03 00:14:02;;;;;;;0.00;0.00;;;13.50;99.90;;;;;;5031964;28;20029;-72
2022/01/03 00:16:29;;;;;;;0.43;0.30;;;13.60;99.90;;;;;;5031776;28;20378;-72
2022/01/03 00:18:55;;;;;;;0.98;0.98;;;13.60;99.90;;;;;;5031819;28;20373;-72
2022/01/03 00:21:29;;;;;;;0.40;0.40;;;13.50;99.90;;;;;;5031839;28;20112;-72
2022/01/03 00:24:32;;;;;;;0.00;0.00;;;13.50;99.90;;;;;;5032037;28;20108;-72
2022/01/03 00:27:10;;;;;;;0.10;0.10;;;13.50;99.90;;;;;;5031550;28;20033;-72
2022/01/03 00:29:50;;;;;;;0.00;0.00;;;13.50;99.90;;;;;;5030421;28;20060;-72
2022/01/03 00:32:16;;;;;;;0.52;0.47;;;13.50;99.90;;;;;;5031623;28;20489;-72
2022/01/03 00:34:44;;;;;;;1.30;0.68;;;13.40;99.90;;;;;;5030236;28;20045;-72
2022/01/03 00:37:11;;;;;;;0.10;0.10;;;13.50;99.90;;;;;;5030404;28;20068;-72
2022/01/03 00:39:37;;;;;;;17.77;1.00;;;13.50;99.90;;;;;;5031237;28;20030;-72
2022/01/03 00:42:03;;;;;;;0.00;0.00;;;13.50;99.90;;;;;;5030558;28;20037;-72
2022/01/03 00:44:31;;;;;;;0.00;0.00;;;13.40;99.90;;;;;;5031436;28;20029;-72
2022/01/03 00:46:58;;;;;;;0.00;0.00;;;13.40;99.90;;;;;;5031529;28;20041;-73
2022/01/03 00:49:24;;;;;;;0.00;0.00;;;12.20;99.90;;;;;;5031724;28;20034;-72
2022/01/03 00:51:50;;;;;;;0.28;0.28;;;11.00;99.90;;;;;;5031046;28;20087;-71
2022/01/03 00:54:16;;;;;;;0.00;0.00;;;10.30;99.90;;;;;;5031406;28;20026;-70
2022/01/03 00:56:47;;;;;;;0.00;0.00;;;9.90;99.90;;;;;;5030085;28;20076;-71
2022/01/03 00:59:25;;;;;;;0.00;0.00;;;9.60;99.90;;;;;;5030510;28;20065;-71
2022/01/03 01:01:54;;;;;;;0.10;0.10;;;9.60;99.90;;;;;;5031507;28;20033;-71
2022/01/03 01:04:23;;;;;;;0.00;0.00;;;9.60;99.90;;;;;;5031491;28;20083;-71
2022/01/03 01:06:55;;;;;;;0.00;0.00;;;9.70;99.90;;;;;;5031180;28;20056;-71
2022/01/03 01:09:27;;;;;;;0.00;0.00;;;9.60;99.90;;;;;;5030148;28;20032;-71
2022/01/03 01:11:56;;;;;;;0.00;0.00;;;9.50;99.90;;;;;;5031161;28;20037;-71
2022/01/03 01:14:25;;;;;;;0.00;0.00;;;9.50;99.90;;;;;;5030004;28;20021;-71
2022/01/03 01:16:51;;;;;;;0.00;0.00;;;9.60;99.90;;;;;;5029703;28;20033;-71
2022/01/03 01:19:21;;;;;;;0.25;0.25;;;9.60;99.90;;;;;;5029997;28;20390;-70
2022/01/03 01:21:51;;;;;;;0.00;0.00;;;9.50;99.90;;;;;;5029904;28;20116;-69
2022/01/03 01:24:20;;;;;;;0.00;0.00;;;9.30;99.90;;;;;;5031415;28;20036;-70
2022/01/03 01:29:31;;;;;;;0.80;0.80;;;9.10;99.90;;;;;;5030333;28;20120;-69
2022/01/03 01:32:03;;;;;;;0.00;0.00;;;9.10;99.90;;;;;;5030846;28;20129;-70
2022/01/03 01:34:32;;;;;;;0.00;0.00;;;9.00;99.90;;;;;;5030752;28;20034;-69
2022/01/03 01:37:00;;;;;;;0.00;0.00;;;9.10;99.90;;;;;;5034691;28;20104;-71
2022/01/03 01:39:31;;;;;;;0.00;0.00;;;9.10;99.90;;;;;;5017036;28;20048;-70
2022/01/03 01:42:01;;;;;;;0.20;0.20;;;9.10;99.90;;;;;;5034827;28;20029;-70
2022/01/03 01:44:31;;;;;;;0.00;0.00;;;9.20;99.90;;;;;;5033265;28;20148;-70
2022/01/03 01:47:06;;;;;;;1.90;1.75;;;9.10;99.90;;;;;;5033164;28;20048;-70
2022/01/03 01:49:44;;;;;;;0.10;0.10;;;9.10;99.90;;;;;;5034382;28;20041;-70
2022/01/03 01:52:21;;;;;;;0.38;0.38;;;9.10;99.90;;;;;;5034685;28;20037;-69
2022/01/03 01:55:04;;;;;;;0.00;0.00;;;9.10;99.90;;;;;;5034476;28;20128;-70
2022/01/03 01:58:05;;;;;;;0.80;0.80;;;9.00;99.90;;;;;;5032794;28;20037;-69
2022/01/03 02:00:34;;;;;;;0.05;0.05;;;9.00;99.90;;;;;;5016767;28;20029;-69
2022/01/03 02:03:24;;;;;;;0.05;0.05;;;8.90;99.90;;;;;;5034215;28;20122;-69
2022/01/03 02:06:15;;;;;;;0.00;0.00;;;9.00;99.90;;;;;;5034130;28;20037;-69
2022/01/03 02:08:51;;;;;;;;;;;9.00;99.90;;;;;;5033342;28;20041;-70
2022/01/03 02:11:36;;;;;;;0.00;0.00;;;9.00;99.90;;;;;;5017281;28;19927;-70
2022/01/03 02:14:03;;;;;;;0.00;0.00;;;9.00;99.90;;;;;;5032895;28;20042;-69
2022/01/03 02:16:32;;;;;;;0.10;0.10;;;9.00;99.90;;;;;;5032604;28;20485;-69
2022/01/03 02:18:58;;;;;;;8.40;2.53;;;9.10;99.90;;;;;;5033707;28;20037;-69
2022/01/03 02:21:24;;;;;;;0.00;0.00;;;9.10;99.90;;;;;;5033764;28;20029;-69
2022/01/03 02:23:50;;;;;;;0.00;0.00;;;9.00;99.90;;;;;;5033557;28;20036;-68
2022/01/03 02:26:15;;;;;;;0.00;0.00;;;9.10;99.90;;;;;;5033705;28;20037;-68
2022/01/03 02:28:41;;;;;;;0.10;0.10;;;9.10;99.90;;;;;;5032194;28;20036;-68
2022/01/03 02:31:07;;;;;;;0.00;0.00;;;9.10;99.90;;;;;;5032394;28;20037;-68
2022/01/03 02:33:33;;;;;;;0.00;0.00;;;9.10;99.90;;;;;;5032225;28;20053;-68
2022/01/03 02:35:59;;;;;;;0.00;0.00;;;9.20;99.90;;;;;;5033379;28;20048;-68
2022/01/03 02:38:26;;;;;;;2.50;0.90;;;9.20;99.90;;;;;;5032614;28;20776;-68
2022/01/03 02:40:51;;;;;;;0.00;0.00;;;9.10;99.90;;;;;;5032088;28;20040;-68
2022/01/03 02:43:17;;;;;;;0.00;0.00;;;9.20;99.90;;;;;;5033611;28;20360;-68
2022/01/03 02:45:43;;;;;;;0.00;0.00;;;9.20;99.90;;;;;;5032442;28;20167;-68
2022/01/03 02:48:11;;;;;;;0.00;0.00;;;9.20;99.90;;;;;;5033126;28;20547;-68
2022/01/03 02:50:39;;;;;;;0.00;0.00;;;9.20;99.90;;;;;;5032855;28;20030;-69
2022/01/03 02:53:05;;;;;;;0.00;0.00;;;9.30;99.90;;;;;;5031968;28;20032;-69
2022/01/03 02:55:32;;;;;;;0.00;0.00;;;9.20;99.90;;;;;;5031833;28;20497;-69
2022/01/03 02:58:06;;;;;;;0.10;0.10;;;9.10;99.90;;;;;;5033121;28;20034;-69
2022/01/03 03:00:37;;;;;;;0.00;0.00;;;9.20;99.90;;;;;;5033038;28;20030;-70
2022/01/03 03:03:03;;;;;;;0.00;0.00;;;9.10;99.90;;;;;;5033165;28;20045;-70
2022/01/03 03:05:30;;;;;;;0.25;0.25;;;9.20;99.90;;;;;;5031403;28;20505;-70
2022/01/03 03:07:56;;;;;;;0.00;0.00;;;9.20;99.90;;;;;;5031626;28;20045;-70
2022/01/03 03:10:24;;;;;;;0.00;0.00;;;9.20;99.90;;;;;;5031629;28;20033;-71
2022/01/03 03:12:50;;;;;;;0.00;0.00;;;9.30;99.90;;;;;;5031768;28;20060;-71
2022/01/03 03:15:17;;;;;;;0.00;0.00;;;9.30;99.90;;;;;;5032953;28;20034;-70
2022/01/03 03:17:44;;;;;;;0.00;0.00;;;9.30;99.90;;;;;;5031148;28;20482;-70
2022/01/03 03:20:23;;;;;;;0.00;0.00;;;9.30;99.90;;;;;;5031567;28;20470;-70
2022/01/03 03:22:50;;;;;;;0.00;0.00;;;9.20;99.90;;;;;;5031677;28;20052;-70
2022/01/03 03:25:30;;;;;;;0.00;0.00;;;9.20;99.90;;;;;;5031507;28;20037;-71
2022/01/03 03:28:14;;;;;;;0.00;0.00;;;9.20;99.90;;;;;;5032622;28;20065;-71
2022/01/03 03:30:44;;;;;;;0.00;0.00;;;9.10;99.90;;;;;;5031128;28;20037;-70
2022/01/03 03:33:15;;;;;;;0.00;0.00;;;9.10;99.90;;;;;;5031081;28;20394;-71
2022/01/03 03:35:41;;;;;;;0.10;0.10;;;9.00;99.90;;;;;;5032261;28;20536;-71
2022/01/03 03:38:08;;;;;;;0.00;0.00;;;9.00;99.90;;;;;;5031185;28;20026;-71
2022/01/03 03:40:34;;;;;;;3.13;2.15;;;8.90;99.90;;;;;;5032383;28;20075;-71
2022/01/03 03:43:00;;;;;;;0.00;0.00;;;8.90;99.90;;;;;;5032561;28;20061;-71
2022/01/03 03:45:26;;;;;;;0.00;0.00;;;8.90;99.90;;;;;;5031101;28;20033;-71
2022/01/03 03:47:53;;;;;;;0.20;0.20;;;8.90;99.90;;;;;;5032201;28;20072;-71
2022/01/03 03:50:20;;;;;;;0.00;0.00;;;8.90;99.90;;;;;;5031042;28;20096;-70
2022/01/03 03:52:46;;;;;;;0.00;0.00;;;9.00;99.90;;;;;;5030986;28;20085;-71
2022/01/03 03:55:12;;;;;;;0.03;0.03;;;9.00;99.90;;;;;;5032101;28;20018;-71
2022/01/03 03:57:37;;;;;;;0.00;0.00;;;9.00;99.90;;;;;;5030649;28;20056;-71
2022/01/03 04:00:09;;;;;;;0.00;0.00;;;9.00;99.90;;;;;;5031941;28;20482;-71
2022/01/03 04:02:34;;;;;;;0.82;0.77;;;9.00;99.90;;;;;;5032312;28;20029;-70
2022/01/03 04:05:01;;;;;;;0.00;0.00;;;8.90;99.90;;;;;;5031690;28;20410;-71
2022/01/03 04:07:27;;;;;;;0.00;0.00;;;8.80;99.90;;;;;;5030786;28;20090;-70
2022/01/03 04:09:53;;;;;;;0.00;0.00;;;8.70;99.90;;;;;;5030846;28;20033;-71
2022/01/03 04:12:19;;;;;;;1.15;1.10;;;8.60;99.90;;;;;;5030348;28;20394;-71
2022/01/03 04:14:45;;;;;;;0.00;0.00;;;8.60;99.90;;;;;;5030302;28;20026;-70
2022/01/03 04:17:12;;;;;;;0.00;0.00;;;8.60;99.90;;;;;;5030511;28;20034;-70
2022/01/03 04:19:38;;;;;;;0.35;0.35;;;8.50;99.90;;;;;;5031447;28;20117;-71
2022/01/03 04:22:05;;;;;;;0.00;0.00;;;8.60;99.90;;;;;;5030437;28;20030;-70
2022/01/03 04:24:31;;;;;;;0.00;0.00;;;8.50;99.90;;;;;;5031662;28;20182;-70
2022/01/03 04:26:57;;;;;;;0.03;0.03;;;8.50;99.90;;;;;;5031388;28;20113;-70
2022/01/03 04:29:23;;;;;;;0.00;0.00;;;8.50;99.90;;;;;;5031654;28;20131;-70
2022/01/03 04:31:49;;;;;;;0.00;0.00;;;8.50;99.90;;;;;;5031304;28;20064;-70
2022/01/03 04:34:15;;;;;;;0.00;0.00;;;8.60;99.90;;;;;;5031590;28;20490;-70
2022/01/03 04:36:41;;;;;;;0.00;0.00;;;8.60;99.90;;;;;;5030003;28;20051;-71
2022/01/03 04:39:07;;;;;;;0.00;0.00;;;8.50;99.90;;;;;;5031823;28;20029;-70
2022/01/03 04:41:34;;;;;;;0.00;0.00;;;8.60;99.90;;;;;;5031432;28;20103;-70
2022/01/03 04:44:00;;;;;;;0.00;0.00;;;8.60;99.90;;;;;;5030269;28;20474;-70
2022/01/03 04:46:27;;;;;;;0.00;0.00;;;8.80;99.90;;;;;;5013446;28;20061;-70
2022/01/03 04:48:53;;;;;;;0.28;0.28;;;8.80;99.90;;;;;;5031404;28;20037;-70
2022/01/03 04:51:19;;;;;;;0.00;0.00;;;8.80;99.90;;;;;;5030115;28;20033;-70
2022/01/03 04:53:45;;;;;;;0.40;0.40;;;8.80;99.90;;;;;;5031457;28;20032;-70
2022/01/03 04:56:13;;;;;;;0.00;0.00;;;8.90;99.90;;;;;;5029530;28;20037;-70
2022/01/03 04:58:39;;;;;;;0.08;0.08;;;8.90;99.90;;;;;;5010282;28;20080;-72
2022/01/03 05:01:06;;;;;;;0.00;0.00;;;9.00;99.90;;;;;;5011177;28;20061;-71
2022/01/03 05:03:33;;;;;;;1.67;1.55;;;9.10;99.90;;;;;;5023726;28;20022;-69
2022/01/03 05:06:01;;;;;;;0.70;0.70;;;9.00;99.90;;;;;;5030004;28;20371;-69
2022/01/03 05:08:33;;;;;;;0.00;0.00;;;9.00;99.90;;;;;;5031081;28;20075;-69
2022/01/03 05:11:02;;;;;;;0.00;0.00;;;9.10;99.90;;;;;;5034634;28;20481;-68
2022/01/03 05:13:31;;;;;;;0.00;0.00;;;9.10;99.90;;;;;;5033892;28;20025;-69
2022/01/03 05:15:59;;;;;;;0.00;0.00;;;9.00;99.90;;;;;;5033485;28;20037;-69
2022/01/03 05:18:28;;;;;;;0.10;0.10;;;9.00;99.90;;;;;;5035251;28;20179;-68
2022/01/03 05:20:55;;;;;;;0.10;0.10;;;9.00;99.90;;;;;;5016932;28;20029;-68
2022/01/03 05:23:21;;;;;;;0.00;0.00;;;8.90;99.90;;;;;;5035199;28;20060;-69
2022/01/03 05:25:47;;;;;;;1.65;1.02;;;8.90;99.90;;;;;;5034708;28;20108;-69
2022/01/03 05:28:13;;;;;;;0.00;0.00;;;8.90;99.90;;;;;;5033400;28;20087;-69
2022/01/03 05:30:40;;;;;;;0.10;0.10;;;8.80;99.90;;;;;;5034530;28;20025;-70
2022/01/03 05:33:07;;;;;;;0.00;0.00;;;8.80;99.90;;;;;;5034814;28;20403;-69
2022/01/03 05:35:33;;;;;;;0.00;0.00;;;8.80;99.90;;;;;;5033475;28;20030;-68
2022/01/03 05:37:59;;;;;;;0.10;0.10;;;8.80;99.90;;;;;;5033455;28;20103;-68
2022/01/03 05:40:28;;;;;;;7.68;0.90;;;8.80;99.90;;;;;;5033362;28;20034;-69
2022/01/03 05:42:54;;;;;;;0.00;0.00;;;8.80;99.90;;;;;;5034495;28;20037;-68
2022/01/03 05:45:23;;;;;;;0.10;0.10;;;8.80;99.90;;;;;;5034516;28;20032;-68
2022/01/03 05:47:49;;;;;;;0.00;0.00;;;8.80;99.90;;;;;;5034117;28;20054;-66
2022/01/03 05:50:16;;;;;;;0.00;0.00;;;8.70;99.90;;;;;;5034289;28;20029;-68
2022/01/03 05:52:43;;;;;;;0.00;0.00;;;8.80;99.90;;;;;;5016651;28;20025;-67
2022/01/03 05:55:10;;;;;;;0.00;0.00;;;8.80;99.90;;;;;;5032886;28;20033;-67
2022/01/03 05:57:37;;;;;;;0.10;0.10;;;8.70;99.90;;;;;;5032846;28;20083;-69
2022/01/03 06:00:06;;;;;;;0.00;0.00;;;8.80;99.90;;;;;;5032862;28;20390;-67
2022/01/03 06:02:37;;;;;;;0.00;0.00;;;8.80;99.90;;;;;;5032798;28;20574;-65
2022/01/03 06:05:07;;;;;;;0.00;0.00;;;8.90;99.90;;;;;;5032780;28;20402;-65
2022/01/03 06:07:33;;;;;;;0.03;0.03;;;9.00;99.90;;;;;;5034467;28;20401;-66
2022/01/03 06:09:59;;;;;;;0.22;0.22;;;9.10;99.90;;;;;;5032944;28;20028;-67
2022/01/03 06:12:25;;;;;;;0.10;0.10;;;9.00;99.90;;;;;;5034348;28;20061;-67
2022/01/03 06:14:51;;;;;;;0.00;0.00;;;9.10;99.90;;;;;;5031821;28;20064;-63
2022/01/03 06:17:19;;;;;;;2.40;1.08;;;9.10;99.90;;;;;;5033020;28;20033;-65
2022/01/03 06:19:45;;;;;;;0.10;0.10;;;9.10;99.90;;;;;;5032491;28;20033;-64
2022/01/03 06:22:12;;;;;;;0.80;0.57;;;9.20;99.90;;;;;;5032859;28;20145;-66
2022/01/03 06:24:39;;;;;;;13.10;2.45;;;9.40;99.90;;;;;;5033906;28;20029;-63
2022/01/03 06:27:06;;;;;;;0.00;0.00;;;9.30;99.90;;;;;;5033642;28;20025;-66
2022/01/03 06:29:32;;;;;;;0.00;0.00;;;9.30;99.90;;;;;;5034040;28;20049;-66
2022/01/03 06:31:58;;;;;;;0.00;0.00;;;9.40;99.90;;;;;;5033587;28;20033;-67
2022/01/03 06:34:24;;;;;;;0.00;0.00;;;9.60;99.90;;;;;;5033489;28;20034;-67
2022/01/03 06:36:50;;;;;;;1.30;1.20;;;9.70;99.90;;;;;;5033450;28;20026;-68
2022/01/03 06:39:16;;;;;;;0.08;0.08;;;9.80;99.90;;;;;;5032741;28;20029;-67
2022/01/03 06:41:43;;;;;;;3.35;1.98;;;9.90;99.90;;;;;;5016066;28;20113;-66
2022/01/03 06:44:09;;;;;;;0.00;0.00;;;9.90;99.90;;;;;;5032371;28;20339;-64
2022/01/03 06:46:38;;;;;;;0.65;0.65;;;10.10;99.90;;;;;;5032036;28;20044;-64
2022/01/03 06:49:05;;;;;;;1.25;1.15;;;10.10;99.90;;;;;;5032143;28;20034;-63
2022/01/03 06:51:34;;;;;;;2.00;1.15;;;10.20;99.90;;;;;;5031874;28;20038;-66
2022/01/03 06:54:05;;;;;;;0.00;0.00;;;10.20;99.90;;;;;;5033365;28;20026;-66
2022/01/03 06:56:31;;;;;;;0.00;0.00;;;10.20;99.90;;;;;;5031790;28;20393;-67
2022/01/03 06:58:57;;;;;;;0.00;0.00;;;10.30;99.90;;;;;;5032799;28;20036;-67
2022/01/03 07:01:23;;;;;;;0.10;0.10;;;10.30;99.90;;;;;;5012909;28;20116;-67
2022/01/03 07:03:49;;;;;;;0.22;0.22;;;10.30;99.90;;;;;;5012293;28;20413;-67
2022/01/03 07:06:15;;;;;;;0.30;0.30;;;10.40;99.90;;;;;;5013164;28;20042;-67
2022/01/03 07:08:41;;;;;;;0.00;0.00;;;10.50;99.90;;;;;;4995446;28;20072;-67
2022/01/03 07:11:07;;;;;;;0.00;0.00;;;10.50;99.90;;;;;;5023011;28;20092;-66
2022/01/03 07:13:42;;;;;;;0.00;0.00;;;10.50;99.90;;;;;;5012906;28;20030;-66
2022/01/03 07:18:59;;;;;;;0.00;0.00;;;10.40;99.90;;;;;;5012750;28;20042;-67
2022/01/03 07:21:30;;;;;;;0.10;0.10;;;10.50;99.90;;;;;;5013202;28;20116;-67
2022/01/03 07:23:56;;;;;;;1.67;0.90;;;10.60;99.90;;;;;;5028296;28;20049;-68
2022/01/03 07:26:25;;;;;;;0.00;0.00;;;10.60;99.90;;;;;;5013030;28;20042;-67
2022/01/03 07:28:52;;;;;;;0.00;0.00;;;10.70;99.90;;;;;;5011295;28;20041;-67
2022/01/03 07:31:19;;;;;;;0.00;0.00;;;10.60;99.90;;;;;;5012966;28;20045;-65
2022/01/03 07:33:46;;;;;;;0.00;0.00;;;10.60;99.90;;;;;;5012160;28;20041;-67
2022/01/03 07:36:12;;;;;;;0.32;0.32;;;10.60;99.90;;;;;;5011727;28;20120;-65
2022/01/03 07:38:38;;;;;;;0.00;0.00;;;10.60;99.90;;;;;;5011375;28;20165;-66
2022/01/03 07:41:05;;;;;;;0.00;0.00;;;10.60;99.90;;;;;;5012527;28;20034;-65
2022/01/03 07:43:31;;;;;;;0.73;0.65;;;10.60;99.90;;;;;;5011556;28;20030;-64
2022/01/03 07:45:57;;;;;;;1.67;0.57;;;10.60;99.90;;;;;;5012180;28;20475;-64
2022/01/03 07:48:23;;;;;;;2.85;1.65;;;10.60;99.90;;;;;;5011226;28;20266;-64
2022/01/03 07:50:49;;;;;;;0.22;0.22;;;10.60;99.90;;;;;;5012315;28;20034;-64
2022/01/03 07:53:15;;;;;;;0.20;0.20;;;10.70;99.90;;;;;;5011197;28;20045;-64
2022/01/03 07:55:41;;;;;;;0.00;0.00;;;10.60;99.90;;;;;;5011339;28;20379;-65
2022/01/03 07:58:06;;;;;;;0.00;0.00;;;10.70;99.90;;;;;;5011182;28;20037;-65
2022/01/03 08:00:32;;;;;;;0.00;0.00;;;10.70;99.90;;;;;;5012255;28;20364;-64
2022/01/03 08:02:58;;;;;;;0.22;0.22;;;10.60;99.90;;;;;;5012367;28;20037;-64
2022/01/03 08:05:24;;;;;;;0.80;0.80;;;10.70;99.90;;;;;;5012093;28;20045;-64
2022/01/03 08:07:50;;;;;;;0.00;0.00;;;10.70;99.90;;;;;;5011954;28;20744;-65
2022/01/03 08:10:16;;;;;;;0.00;0.00;;;10.70;99.90;;;;;;5012312;28;20029;-64
2022/01/03 08:12:44;;;;;;;0.00;0.00;;;10.70;99.90;;;;;;5012090;28;20038;-64
2022/01/03 08:15:10;;;;;;;0.05;0.05;;;10.70;99.90;;;;;;5012247;28;20041;-64
2022/01/03 08:17:36;;;;;;;0.00;0.00;;;10.80;99.90;;;;;;5012335;28;20115;-64
2022/01/03 08:20:03;;;;;;;0.82;0.73;;;10.80;99.90;;;;;;5011858;28;20108;-65
2022/01/03 08:22:29;;;;;;;0.00;0.00;;;10.70;99.90;;;;;;5011900;28;20029;-64
2022/01/03 08:24:55;;;;;;;0.05;0.05;;;10.60;99.90;;;;;;5026882;28;20053;-64
2022/01/03 08:27:21;;;;;;;0.00;0.00;;;10.50;99.90;;;;;;5011023;28;20053;-64
2022/01/03 08:29:47;;;;;;;0.00;0.00;;;10.50;99.90;;;;;;5010727;28;20487;-64
2022/01/03 08:32:12;;;;;;;0.00;0.00;;;10.60;99.90;;;;;;5010672;28;20041;-64
2022/01/03 08:34:38;;;;;;;0.00;0.00;;;10.60;99.90;;;;;;5012081;28;20030;-63
2022/01/03 08:37:05;;;;;;;0.43;0.43;;;10.60;99.90;;;;;;5011804;28;20104;-63
2022/01/03 08:39:31;;;;;;;0.95;0.52;;;10.70;99.90;;;;;;5011828;28;20033;-63
2022/01/03 08:41:57;;;;;;;0.00;0.00;;;10.80;99.90;;;;;;5011884;28;20026;-63
2022/01/03 08:44:23;;;;;;;0.00;0.00;;;10.70;99.90;;;;;;5013105;28;20073;-63
2022/01/03 08:46:50;;;;;;;0.00;0.00;;;10.70;99.90;;;;;;5015955;28;20056;-64
2022/01/03 08:49:17;;;;;;;0.00;0.00;;;10.70;99.90;;;;;;5015672;28;20450;-64
2022/01/03 08:51:43;;;;;;;0.00;0.00;;;10.70;99.90;;;;;;5015869;28;20030;-64
2022/01/03 08:54:10;;;;;;;0.00;0.00;;;10.80;99.90;;;;;;5016777;28;20045;-63
2022/01/03 08:56:38;;;;;;;0.00;0.00;;;10.80;99.90;;;;;;5015910;28;20113;-63
2022/01/03 08:59:04;;;;;;;0.52;0.20;;;10.80;99.90;;;;;;5015407;28;20081;-64
2022/01/03 09:01:30;;;;;;;0.00;0.00;;;10.90;99.90;;;;;;5015647;28;20040;-64
2022/01/03 09:03:56;;;;;;;0.08;0.08;;;11.00;99.90;;;;;;5030620;28;20029;-64
2022/01/03 09:06:22;;;;;;;0.00;0.00;;;11.00;99.90;;;;;;5014528;28;20070;-63
2022/01/03 09:08:48;;;;;;;0.25;0.20;;;11.00;99.90;;;;;;5015482;28;20460;-64
2022/01/03 09:11:15;;;;;;;0.00;0.00;;;11.10;99.90;;;;;;5013985;28;20120;-63
2022/01/03 09:13:41;;;;;;;0.00;0.00;;;11.10;99.90;;;;;;5015289;28;20065;-64
2022/01/03 09:16:07;;;;;;;0.85;0.85;;;11.00;99.90;;;;;;5019202;28;20496;-63
2022/01/03 09:18:39;;;;;;;0.00;0.00;;;11.10;99.90;;;;;;5015512;28;20080;-64
2022/01/03 09:21:06;;;;;;;0.15;0.15;;;11.10;99.90;;;;;;5015462;28;20030;-63
2022/01/03 09:23:37;;;;;;;0.00;0.00;;;11.10;99.90;;;;;;5015518;28;20084;-64
2022/01/03 09:28:49;;;;;;;0.00;0.00;;;11.20;99.90;;;;;;5013749;28;20104;-63
2022/01/03 09:31:16;;;;;;;0.00;0.00;;;11.20;99.90;;;;;;5015110;28;20077;-64
2022/01/03 09:33:43;;;;;;;17.00;1.00;;;11.30;99.90;;;;;;5015079;28;20084;-63
2022/01/03 09:36:09;;;;;;;1.08;0.93;;;11.20;99.90;;;;;;5013362;28;20095;-63
2022/01/03 09:38:36;;;;;;;0.00;0.00;;;11.30;99.90;;;;;;5015115;28;20038;-63
2022/01/03 09:41:04;;;;;;;0.00;0.00;;;11.40;99.90;;;;;;5014664;28;20103;-63
2022/01/03 09:43:47;;;;;;;0.00;0.00;;;11.40;99.90;;;;;;4997065;28;20141;-63
2022/01/03 09:46:26;;;;;;;0.52;0.52;;;11.40;99.90;;;;;;5013598;28;20033;-63
2022/01/03 09:48:55;;;;;;;0.10;0.10;;;11.40;99.90;;;;;;5015045;28;20478;-63
2022/01/03 09:51:24;;;;;;;0.10;0.10;;;11.40;99.90;;;;;;5013055;28;20069;-64
2022/01/03 09:53:51;;;;;;;1.38;1.17;;;11.50;99.90;;;;;;5014438;28;20030;-64
2022/01/03 09:56:18;;;;;;;0.00;0.00;;;11.60;99.90;;;;;;5013865;28;20111;-64
2022/01/03 09:58:48;;;;;;;0.00;0.00;;;11.60;99.90;;;;;;5014492;28;20025;-64
2022/01/03 10:01:15;;;;;;;0.00;0.00;;;11.60;99.90;;;;;;5029569;28;20038;-64
2022/01/03 10:03:47;;;;;;;1.02;1.02;;;11.60;99.90;;;;;;5014191;28;20041;-64
2022/01/03 10:06:15;;;;;;;0.10;0.10;;;11.60;99.90;;;;;;4997443;28;20487;-64
2022/01/03 10:08:42;;;;;;;0.00;0.00;;;11.70;99.90;;;;;;5013421;28;20029;-63
2022/01/03 10:11:08;;;;;;;0.00;0.00;;;11.60;99.90;;;;;;5013260;28;20030;-63
2022/01/03 10:13:33;;;;;;;0.93;0.55;;;11.60;99.90;;;;;;5014515;28;20036;-63
2022/01/03 10:15:59;;;;;;;0.22;0.22;;;11.70;99.90;;;;;;5014530;28;20045;-63
2022/01/03 10:18:26;;;;;;;0.00;0.00;;;11.60;99.90;;;;;;5013051;28;20041;-63
2022/01/03 10:20:54;;;;;;;0.00;0.00;;;11.70;99.90;;;;;;5012959;28;20034;-63
2022/01/03 10:23:20;;;;;;;0.30;0.30;;;11.70;99.90;;;;;;5012706;28;20503;-64
2022/01/03 10:25:46;;;;;;;0.05;0.05;;;11.70;99.90;;;;;;5013113;28;20494;-62
2022/01/03 10:28:28;;;;;;;0.68;0.68;;;11.70;99.90;;;;;;4996487;28;20030;-62
2022/01/03 10:30:54;;;;;;;0.10;0.10;;;11.60;99.90;;;;;;5012319;28;20089;-62
2022/01/03 10:33:24;;;;;;;0.00;0.00;;;11.60;99.90;;;;;;5013702;28;20578;-63
2022/01/03 10:35:55;;;;;;;1.00;1.00;;;11.60;99.90;;;;;;5014077;28;20040;-63
2022/01/03 10:38:37;;;;;;;;;;;11.70;99.90;;;;;;5012925;28;20072;-62
2022/01/03 10:41:19;;;;;;;0.00;0.00;;;11.70;99.90;;;;;;5013702;28;19976;-63
2022/01/03 10:44:03;;;;;;;0.00;0.00;;;11.80;99.90;;;;;;5013724;28;20041;-63
2022/01/03 10:46:35;;;;;;;1.83;1.63;;;11.70;99.90;;;;;;5015802;28;20030;-63
2022/01/03 10:49:18;;;;;;;0.70;0.70;;;11.70;99.90;;;;;;5013375;28;20038;-63
2022/01/03 10:51:44;;;;;;;0.65;0.55;;;11.70;99.90;;;;;;5013500;28;20069;-63
2022/01/03 10:54:18;;;;;;;0.00;0.00;;;11.80;99.90;;;;;;5012400;28;20743;-62
2022/01/03 10:56:50;;;;;;;3.60;2.08;;;11.80;99.90;;;;;;5012347;28;20029;-63
2022/01/03 10:59:16;;;;;;;1.08;0.98;;;11.80;99.90;;;;;;5013481;28;20042;-63
2022/01/03 11:01:47;;;;;;;1.08;0.82;;;11.80;99.90;;;;;;5013457;28;20536;-63
2022/01/03 11:04:59;;;;;;;0.28;0.28;;;11.80;99.90;;;;;;5013000;28;20061;-63
2022/01/03 11:13:06;;;;;;;0.15;0.15;;;11.70;99.90;;;;;;5013172;28;20483;-63
2022/01/03 11:15:33;;;;;;;0.00;0.00;;;11.70;99.90;;;;;;5024300;28;20029;-63
2022/01/03 11:18:33;;;;;;;0.00;0.00;;;11.70;99.90;;;;;;5047996;28;20037;-63
2022/01/03 11:21:16;;;;;;;1.65;1.55;;;11.70;99.90;;;;;;5032605;28;20364;-62
2022/01/03 11:23:53;;;;;;;0.75;0.68;;;11.80;99.90;;;;;;5032937;28;20060;-62
2022/01/03 11:26:21;;;;;;;1.75;1.10;;;11.80;99.90;;;;;;5031392;28;20557;-63
2022/01/03 11:28:48;;;;;;;0.03;0.03;;;11.90;99.90;;;;;;5032904;28;20025;-63
2022/01/03 11:31:17;;;;;;;0.00;0.00;;;11.90;99.90;;;;;;5032538;28;20037;-62
2022/01/03 11:33:43;;;;;;;7.57;2.35;;;11.90;99.90;;;;;;5032603;28;20025;-62
2022/01/03 11:36:11;;;;;;;0.10;0.10;;;11.90;99.90;;;;;;5030868;28;20488;-62
2022/01/03 11:38:40;;;;;;;0.00;0.00;;;11.90;99.90;;;;;;5047956;28;20033;-63
2022/01/03 11:41:10;;;;;;;0.00;0.00;;;12.00;99.90;;;;;;5032222;28;20113;-62
2022/01/03 11:43:39;;;;;;;0.10;0.10;;;12.10;99.90;;;;;;5030983;28;20057;-61
2022/01/03 11:46:06;;;;;;;0.00;0.00;;;12.10;99.90;;;;;;5032021;28;20030;-62
2022/01/03 11:48:33;;;;;;;0.00;0.00;;;12.00;99.90;;;;;;5031993;28;20115;-62
2022/01/03 11:51:10;;;;;;;0.03;0.03;;;12.00;99.90;;;;;;5031814;28;20065;-62
2022/01/03 11:53:44;;;;;;;0.35;0.35;;;12.10;99.90;;;;;;5032088;28;20066;-61
2022/01/03 11:56:25;;;;;;;0.00;0.00;;;12.00;99.90;;;;;;5031218;28;20049;-65
2022/01/03 12:03:36;;;;;;;0.82;0.75;;;12.10;99.90;;;;;;5032216;28;20033;-64
2022/01/03 12:04:41;;;;;;;0.00;0.00;;;12.10;99.90;;;;;;5032191;28;20497;-62
2022/01/03 12:07:11;;;;;;;0.00;0.00;;;12.10;99.90;;;;;;5030536;28;20439;-62
2022/01/03 12:09:43;;;;;;;0.00;0.00;;;12.20;99.90;;;;;;5032284;28;20485;-63
2022/01/03 12:12:09;;;;;;;;;;;12.20;99.90;;;;;;5031864;28;20781;-64
2022/01/03 12:14:43;;;;;;;0.05;0.05;;;12.30;99.90;;;;;;5031700;28;19913;-64
2022/01/03 12:17:11;;;;;;;0.00;0.00;;;12.20;99.90;;;;;;5031671;28;20029;-63
2022/01/03 12:19:43;;;;;;;2.17;1.17;;;12.20;99.90;;;;;;5030304;28;20052;-64
2022/01/03 12:22:13;;;;;;;0.00;0.00;;;12.10;99.90;;;;;;5030481;28;20394;-64
2022/01/03 12:24:56;;;;;;;0.00;0.00;;;12.20;99.90;;;;;;5031821;28;20033;-63
2022/01/03 12:27:29;;;;;;;0.00;0.00;;;12.20;99.90;;;;;;5031542;28;20037;-63
2022/01/03 12:29:57;;;;;;;0.00;0.00;;;12.20;99.90;;;;;;5031644;28;20072;-63
2022/01/03 12:32:40;;;;;;;0.00;0.00;;;12.20;99.90;;;;;;5031280;28;20099;-63
2022/01/03 12:35:10;;;;;;;1.00;0.95;;;12.30;99.90;;;;;;5030023;28;20120;-63
2022/01/03 12:37:47;;;;;;;1.40;1.30;;;12.20;99.90;;;;;;5031702;28;20124;-64
2022/01/03 12:40:18;;;;;;;0.30;0.30;;;12.20;99.90;;;;;;5030628;28;20083;-63
2022/01/03 12:42:50;;;;;;;0.00;0.00;;;12.10;99.90;;;;;;5031435;28;20029;-63
2022/01/03 12:45:33;;;;;;;0.03;0.03;;;12.10;99.90;;;;;;5030733;28;20402;-63
2022/01/03 12:48:11;;;;;;;0.00;0.00;;;12.10;99.90;;;;;;5020095;28;20061;-63
2022/01/03 12:50:41;;;;;;;0.00;0.00;;;12.00;99.90;;;;;;5011433;28;20096;-63
2022/01/03 12:53:11;;;;;;;1.80;1.07;;;12.00;99.90;;;;;;5011952;28;20034;-63
2022/01/03 12:55:43;;;;;;;0.00;0.00;;;12.00;99.90;;;;;;5011948;28;20054;-63
2022/01/03 12:58:16;;;;;;;1.17;0.93;;;12.00;99.90;;;;;;5010171;28;20084;-62
2022/01/03 13:00:58;;;;;;;0.00;0.00;;;11.90;99.90;;;;;;5011715;28;20113;-63
2022/01/03 13:03:43;;;;;;;0.70;0.70;;;11.90;99.90;;;;;;5011683;28;20042;-63
2022/01/03 13:06:24;;;;;;;2.17;0.80;;;11.90;99.90;;;;;;5010642;28;20129;-63
2022/01/03 13:08:55;;;;;;;0.30;0.30;;;11.90;99.90;;;;;;5011953;28;20095;-62
2022/01/03 13:11:34;;;;;;;0.00;0.00;;;11.90;99.90;;;;;;5011668;28;20050;-63
2022/01/03 13:14:08;;;;;;;0.30;0.30;;;12.00;99.90;;;;;;5021020;28;20034;-63
2022/01/03 13:16:44;;;;;;;0.00;0.00;;;11.90;99.90;;;;;;5031383;28;20474;-63
2022/01/03 13:19:20;;;;;;;0.00;0.00;;;11.90;99.90;;;;;;5031082;28;20045;-63
2022/01/03 13:21:50;;;;;;;0.17;0.17;;;11.90;99.90;;;;;;5029864;28;20033;-63